sensor_id;sensor_type;location;lat;lon;timestamp;pressure;altitude;pressure_sealevel;temperature;humidity
17821;BME280;9035;42.554;23.188;2022-09-09T00:02:15;90317.72;;;19.97;63.96
17821;BME280;9035;42.554;23.188;2022-09-09T00:04:51;90313.41;;;19.75;64.28
17821;BME280;9035;42.554;23.188;2022-09-09T00:07:25;90305.47;;;19.65;64.99
17821;BME280;9035;42.554;23.188;2022-09-09T00:10:03;90307.38;;;19.64;64.87
17821;BME280;9035;42.554;23.188;2022-09-09T00:12:38;90298.72;;;19.71;64.79
17821;BME280;9035;42.554;23.188;2022-09-09T00:15:11;90304.81;;;19.78;64.46
17821;BME280;9035;42.554;23.188;2022-09-09T00:17:43;90308.25;;;19.89;64.31
17821;BME280;9035;42.554;23.188;2022-09-09T00:20:17;90303.69;;;19.83;64.38
17821;BME280;9035;42.554;23.188;2022-09-09T00:22:53;90292.06;;;19.84;64.45
17821;BME280;9035;42.554;23.188;2022-09-09T00:25:29;90284.91;;;19.88;64.54
17821;BME280;9035;42.554;23.188;2022-09-09T00:27:59;90279.59;;;19.77;65.04
17821;BME280;9035;42.554;23.188;2022-09-09T00:30:31;90277.38;;;19.79;64.73
17821;BME280;9035;42.554;23.188;2022-09-09T00:33:00;90277.03;;;19.88;64.47
17821;BME280;9035;42.554;23.188;2022-09-09T00:35:30;90275.91;;;19.89;64.40
17821;BME280;9035;42.554;23.188;2022-09-09T00:38:02;90271.00;;;19.87;64.32
17821;BME280;9035;42.554;23.188;2022-09-09T00:40:35;90267.22;;;19.81;64.59
17821;BME280;9035;42.554;23.188;2022-09-09T00:43:20;90271.34;;;19.79;64.72
17821;BME280;9035;42.554;23.188;2022-09-09T00:48:56;90271.31;;;19.75;64.89
17821;BME280;9035;42.554;23.188;2022-09-09T00:51:30;90271.31;;;19.72;65.10
17821;BME280;9035;42.554;23.188;2022-09-09T00:54:20;90265.31;;;19.75;65.32
17821;BME280;9035;42.554;23.188;2022-09-09T00:57:00;90264.19;;;19.72;65.17
17821;BME280;9035;42.554;23.188;2022-09-09T00:59:38;90258.13;;;19.68;65.60
17821;BME280;9035;42.554;23.188;2022-09-09T01:02:14;90248.75;;;19.71;65.20
17821;BME280;9035;42.554;23.188;2022-09-09T01:04:42;90256.25;;;19.69;65.06
17821;BME280;9035;42.554;23.188;2022-09-09T01:07:16;90260.81;;;19.82;64.83
17821;BME280;9035;42.554;23.188;2022-09-09T01:09:51;90255.56;;;19.82;64.75
17821;BME280;9035;42.554;23.188;2022-09-09T01:12:30;90267.56;;;19.73;64.99
17821;BME280;9035;42.554;23.188;2022-09-09T01:15:09;90269.44;;;19.72;64.83
17821;BME280;9035;42.554;23.188;2022-09-09T01:17:46;90276.97;;;19.77;64.59
17821;BME280;9035;42.554;23.188;2022-09-09T01:20:19;90257.38;;;19.64;64.31
17821;BME280;9035;42.554;23.188;2022-09-09T01:22:59;90266.06;;;19.75;64.05
17821;BME280;9035;42.554;23.188;2022-09-09T01:26:08;90281.81;;;19.72;64.22
17821;BME280;9035;42.554;23.188;2022-09-09T01:28:40;90269.78;;;19.71;64.32
17821;BME280;9035;42.554;23.188;2022-09-09T01:31:12;90272.78;;;19.66;64.14
17821;BME280;9035;42.554;23.188;2022-09-09T01:33:40;90272.06;;;19.69;64.25
17821;BME280;9035;42.554;23.188;2022-09-09T01:36:10;90264.84;;;19.59;64.44
17821;BME280;9035;42.554;23.188;2022-09-09T01:38:39;90275.78;;;19.61;64.02
17821;BME280;9035;42.554;23.188;2022-09-09T01:41:07;90264.84;;;19.55;64.07
17821;BME280;9035;42.554;23.188;2022-09-09T01:43:35;90267.44;;;19.48;64.27
17821;BME280;9035;42.554;23.188;2022-09-09T01:46:01;90259.88;;;19.47;64.30
17821;BME280;9035;42.554;23.188;2022-09-09T01:48:29;90267.78;;;19.50;64.26
17821;BME280;9035;42.554;23.188;2022-09-09T01:50:56;90261.78;;;19.50;64.23
17821;BME280;9035;42.554;23.188;2022-09-09T01:53:23;90264.81;;;19.48;63.79
17821;BME280;9035;42.554;23.188;2022-09-09T01:55:59;90257.66;;;19.49;64.50
17821;BME280;9035;42.554;23.188;2022-09-09T01:58:38;90261.41;;;19.48;64.37
17821;BME280;9035;42.554;23.188;2022-09-09T02:01:30;90251.28;;;19.50;64.11
17821;BME280;9035;42.554;23.188;2022-09-09T02:04:04;90252.00;;;19.47;64.41
17821;BME280;9035;42.554;23.188;2022-09-09T02:06:38;90249.00;;;19.45;64.54
17821;BME280;9035;42.554;23.188;2022-09-09T02:09:07;90261.34;;;19.37;64.63
17821;BME280;9035;42.554;23.188;2022-09-09T02:11:38;90260.25;;;19.42;64.36
17821;BME280;9035;42.554;23.188;2022-09-09T02:14:10;90245.97;;;19.43;64.04
17821;BME280;9035;42.554;23.188;2022-09-09T02:16:42;90249.72;;;19.42;64.21
17821;BME280;9035;42.554;23.188;2022-09-09T02:19:12;90250.44;;;19.39;63.93
17821;BME280;9035;42.554;23.188;2022-09-09T02:21:42;90246.31;;;19.38;64.02
17821;BME280;9035;42.554;23.188;2022-09-09T02:24:12;90248.22;;;19.41;63.88
17821;BME280;9035;42.554;23.188;2022-09-09T02:26:42;90250.47;;;19.42;63.57
17821;BME280;9035;42.554;23.188;2022-09-09T02:29:13;90259.84;;;19.40;63.34
17821;BME280;9035;42.554;23.188;2022-09-09T02:31:41;90255.69;;;19.35;63.86
17821;BME280;9035;42.554;23.188;2022-09-09T02:34:11;90260.16;;;19.28;63.64
17821;BME280;9035;42.554;23.188;2022-09-09T02:36:42;90256.06;;;19.34;62.81
17821;BME280;9035;42.554;23.188;2022-09-09T02:39:11;90266.22;;;19.39;63.09
17821;BME280;9035;42.554;23.188;2022-09-09T02:41:39;90268.50;;;19.40;63.08
17821;BME280;9035;42.554;23.188;2022-09-09T02:44:11;90259.78;;;19.30;63.37
17821;BME280;9035;42.554;23.188;2022-09-09T02:47:03;90266.22;;;19.35;63.48
17821;BME280;9035;42.554;23.188;2022-09-09T02:49:40;90268.50;;;19.40;62.94
17821;BME280;9035;42.554;23.188;2022-09-09T02:52:13;90283.88;;;19.35;62.67
17821;BME280;9035;42.554;23.188;2022-09-09T02:54:42;90284.22;;;19.33;62.69
17821;BME280;9035;42.554;23.188;2022-09-09T02:57:11;90275.63;;;19.40;62.44
17821;BME280;9035;42.554;23.188;2022-09-09T02:59:40;90277.81;;;19.31;62.77
17821;BME280;9035;42.554;23.188;2022-09-09T03:02:07;90281.97;;;19.32;62.02
17821;BME280;9035;42.554;23.188;2022-09-09T03:04:36;90274.13;;;19.39;62.21
17821;BME280;9035;42.554;23.188;2022-09-09T03:07:03;90281.59;;;19.37;62.58
17821;BME280;9035;42.554;23.188;2022-09-09T03:09:30;90275.97;;;19.32;62.66
17821;BME280;9035;42.554;23.188;2022-09-09T03:11:58;90256.34;;;19.22;62.64
17821;BME280;9035;42.554;23.188;2022-09-09T03:14:25;90277.41;;;19.26;63.06
17821;BME280;9035;42.554;23.188;2022-09-09T03:16:54;90270.97;;;19.20;63.63
17821;BME280;9035;42.554;23.188;2022-09-09T03:19:21;90272.53;;;19.28;63.19
17821;BME280;9035;42.554;23.188;2022-09-09T03:21:48;90262.38;;;19.23;63.05
17821;BME280;9035;42.554;23.188;2022-09-09T03:24:15;90258.53;;;19.13;64.00
17821;BME280;9035;42.554;23.188;2022-09-09T03:26:42;90258.91;;;19.12;63.83
17821;BME280;9035;42.554;23.188;2022-09-09T03:29:10;90253.56;;;19.05;63.77
17821;BME280;9035;42.554;23.188;2022-09-09T03:31:38;90253.59;;;19.08;63.74
17821;BME280;9035;42.554;23.188;2022-09-09T03:34:06;90267.13;;;19.07;64.17
17821;BME280;9035;42.554;23.188;2022-09-09T03:36:33;90263.44;;;19.11;63.93
17821;BME280;9035;42.554;23.188;2022-09-09T03:39:00;90264.06;;;19.01;64.19
17821;BME280;9035;42.554;23.188;2022-09-09T03:41:28;90263.44;;;19.15;64.15
17821;BME280;9035;42.554;23.188;2022-09-09T03:43:55;90266.72;;;19.05;63.95
17821;BME280;9035;42.554;23.188;2022-09-09T03:46:24;90272.38;;;19.07;64.31
17821;BME280;9035;42.554;23.188;2022-09-09T03:48:51;90262.22;;;19.09;64.55
17821;BME280;9035;42.554;23.188;2022-09-09T03:51:20;90264.59;;;19.17;64.04
17821;BME280;9035;42.554;23.188;2022-09-09T03:53:47;90260.06;;;19.18;63.63
17821;BME280;9035;42.554;23.188;2022-09-09T03:56:14;90259.72;;;19.16;64.05
17821;BME280;9035;42.554;23.188;2022-09-09T03:58:41;90258.94;;;19.15;64.30
17821;BME280;9035;42.554;23.188;2022-09-09T04:01:09;90261.91;;;19.10;64.34
17821;BME280;9035;42.554;23.188;2022-09-09T04:03:38;90268.31;;;19.13;64.37
17821;BME280;9035;42.554;23.188;2022-09-09T04:06:06;90260.03;;;19.14;64.43
17821;BME280;9035;42.554;23.188;2022-09-09T04:08:36;90261.97;;;19.17;64.32
17821;BME280;9035;42.554;23.188;2022-09-09T04:11:04;90262.69;;;19.18;64.05
17821;BME280;9035;42.554;23.188;2022-09-09T04:13:32;90266.88;;;19.26;64.17
17821;BME280;9035;42.554;23.188;2022-09-09T04:16:02;90265.75;;;19.23;63.77
17821;BME280;9035;42.554;23.188;2022-09-09T04:18:30;90257.06;;;19.12;64.56
17821;BME280;9035;42.554;23.188;2022-09-09T04:20:57;90258.69;;;19.34;64.29
17821;BME280;9035;42.554;23.188;2022-09-09T04:23:25;90259.41;;;19.28;64.05
17821;BME280;9035;42.554;23.188;2022-09-09T04:25:55;90263.94;;;19.34;63.94
17821;BME280;9035;42.554;23.188;2022-09-09T04:28:24;90264.28;;;19.29;64.52
17821;BME280;9035;42.554;23.188;2022-09-09T04:30:51;90261.72;;;19.36;64.33
17821;BME280;9035;42.554;23.188;2022-09-09T04:33:18;90257.19;;;19.36;64.65
17821;BME280;9035;42.554;23.188;2022-09-09T04:35:46;90260.97;;;19.39;64.73
17821;BME280;9035;42.554;23.188;2022-09-09T04:38:14;90257.25;;;19.43;64.46
17821;BME280;9035;42.554;23.188;2022-09-09T04:40:42;90264.38;;;19.43;64.59
17821;BME280;9035;42.554;23.188;2022-09-09T04:43:11;90236.41;;;19.18;64.68
17821;BME280;9035;42.554;23.188;2022-09-09T04:45:39;90270.84;;;19.56;64.65
17821;BME280;9035;42.554;23.188;2022-09-09T04:48:06;90267.47;;;19.55;64.71
17821;BME280;9035;42.554;23.188;2022-09-09T04:50:33;90259.97;;;19.57;64.64
17821;BME280;9035;42.554;23.188;2022-09-09T04:53:00;90261.09;;;19.60;64.49
17821;BME280;9035;42.554;23.188;2022-09-09T04:55:28;90274.25;;;19.56;64.85
17821;BME280;9035;42.554;23.188;2022-09-09T04:57:55;90270.91;;;19.70;65.05
17821;BME280;9035;42.554;23.188;2022-09-09T05:00:24;90260.81;;;19.79;64.73
17821;BME280;9035;42.554;23.188;2022-09-09T05:02:51;90261.94;;;19.78;64.46
17821;BME280;9035;42.554;23.188;2022-09-09T05:05:17;90254.78;;;19.75;64.84
17821;BME280;9035;42.554;23.188;2022-09-09T05:07:45;90243.88;;;19.76;64.73
17821;BME280;9035;42.554;23.188;2022-09-09T05:10:12;90240.91;;;19.81;64.83
17821;BME280;9035;42.554;23.188;2022-09-09T05:12:40;90238.28;;;19.81;65.13
17821;BME280;9035;42.554;23.188;2022-09-09T05:15:07;90243.88;;;19.73;65.29
17821;BME280;9035;42.554;23.188;2022-09-09T05:17:36;90251.06;;;19.83;65.53
17821;BME280;9035;42.554;23.188;2022-09-09T05:20:03;90236.41;;;19.85;65.46
17821;BME280;9035;42.554;23.188;2022-09-09T05:22:30;90233.03;;;19.88;65.73
17821;BME280;9035;42.554;23.188;2022-09-09T05:24:57;90229.31;;;19.93;65.47
17821;BME280;9035;42.554;23.188;2022-09-09T05:27:23;90230.03;;;19.93;65.81
17821;BME280;9035;42.554;23.188;2022-09-09T05:29:50;90239.88;;;20.00;65.91
17821;BME280;9035;42.554;23.188;2022-09-09T05:32:17;90228.63;;;20.06;65.79
17821;BME280;9035;42.554;23.188;2022-09-09T05:34:45;90228.25;;;20.11;66.32
17821;BME280;9035;42.554;23.188;2022-09-09T05:37:12;90224.53;;;20.22;65.10
17821;BME280;9035;42.554;23.188;2022-09-09T05:39:39;90226.78;;;20.27;64.99
17821;BME280;9035;42.554;23.188;2022-09-09T05:42:06;90227.94;;;20.26;65.19
17821;BME280;9035;42.554;23.188;2022-09-09T05:44:33;90224.94;;;20.35;65.49
17821;BME280;9035;42.554;23.188;2022-09-09T05:47:00;90236.22;;;20.35;65.44
17821;BME280;9035;42.554;23.188;2022-09-09T05:49:27;90237.38;;;20.41;64.66
17821;BME280;9035;42.554;23.188;2022-09-09T05:51:55;90240.41;;;20.57;64.72
17821;BME280;9035;42.554;23.188;2022-09-09T05:54:21;90241.53;;;20.63;64.68
17821;BME280;9035;42.554;23.188;2022-09-09T05:56:48;90240.03;;;20.66;65.69
17821;BME280;9035;42.554;23.188;2022-09-09T05:59:18;90244.56;;;20.69;65.74
17821;BME280;9035;42.554;23.188;2022-09-09T06:01:44;90241.56;;;20.81;64.87
17821;BME280;9035;42.554;23.188;2022-09-09T06:04:11;90248.34;;;20.82;65.16
17821;BME280;9035;42.554;23.188;2022-09-09T06:06:39;90258.94;;;20.89;64.75
17821;BME280;9035;42.554;23.188;2022-09-09T06:09:09;90251.75;;;20.96;64.24
17821;BME280;9035;42.554;23.188;2022-09-09T06:11:38;90259.31;;;21.04;62.77
17821;BME280;9035;42.554;23.188;2022-09-09T06:14:06;90277.75;;;21.18;63.30
17821;BME280;9035;42.554;23.188;2022-09-09T06:16:33;90277.75;;;21.32;61.88
17821;BME280;9035;42.554;23.188;2022-09-09T06:19:03;90270.97;;;21.42;60.70
17821;BME280;9035;42.554;23.188;2022-09-09T06:21:32;90264.19;;;21.48;59.30
17821;BME280;9035;42.554;23.188;2022-09-09T06:24:00;90260.78;;;21.37;60.27
17821;BME280;9035;42.554;23.188;2022-09-09T06:26:30;90273.25;;;21.40;60.35
17821;BME280;9035;42.554;23.188;2022-09-09T06:28:58;90266.81;;;21.41;60.35
17821;BME280;9035;42.554;23.188;2022-09-09T06:31:27;90258.91;;;21.41;60.18
17821;BME280;9035;42.554;23.188;2022-09-09T06:36:23;90254.00;;;21.60;59.67
17821;BME280;9035;42.554;23.188;2022-09-09T06:38:50;90247.59;;;21.61;59.88
17821;BME280;9035;42.554;23.188;2022-09-09T06:41:18;90253.59;;;21.72;59.59
17821;BME280;9035;42.554;23.188;2022-09-09T06:43:47;90251.75;;;21.66;59.98
17821;BME280;9035;42.554;23.188;2022-09-09T06:46:15;90246.06;;;21.64;59.90
17821;BME280;9035;42.554;23.188;2022-09-09T06:48:43;90262.63;;;21.82;59.62
17821;BME280;9035;42.554;23.188;2022-09-09T06:51:12;90265.63;;;21.80;60.11
17821;BME280;9035;42.554;23.188;2022-09-09T06:53:40;90261.88;;;21.78;60.40
17821;BME280;9035;42.554;23.188;2022-09-09T06:56:18;90267.91;;;21.85;60.91
17821;BME280;9035;42.554;23.188;2022-09-09T06:58:48;90275.06;;;21.78;61.55
17821;BME280;9035;42.554;23.188;2022-09-09T07:01:17;90280.72;;;21.83;61.13
17821;BME280;9035;42.554;23.188;2022-09-09T07:03:46;90281.84;;;21.85;59.94
17821;BME280;9035;42.554;23.188;2022-09-09T07:06:17;90287.53;;;21.81;60.47
17821;BME280;9035;42.554;23.188;2022-09-09T07:08:48;90279.56;;;21.91;60.09
17821;BME280;9035;42.554;23.188;2022-09-09T07:11:16;90279.56;;;21.91;60.12
17821;BME280;9035;42.554;23.188;2022-09-09T07:13:42;90281.44;;;22.01;60.63
17821;BME280;9035;42.554;23.188;2022-09-09T07:16:11;90283.69;;;22.02;60.94
17821;BME280;9035;42.554;23.188;2022-09-09T07:18:39;90287.47;;;21.94;61.83
17821;BME280;9035;42.554;23.188;2022-09-09T07:21:08;90278.38;;;22.13;60.61
17821;BME280;9035;42.554;23.188;2022-09-09T07:23:35;90278.72;;;22.18;60.89
17821;BME280;9035;42.554;23.188;2022-09-09T07:26:02;90271.59;;;22.15;60.36
17821;BME280;9035;42.554;23.188;2022-09-09T07:28:29;90280.97;;;22.30;60.39
17821;BME280;9035;42.554;23.188;2022-09-09T07:30:57;90269.25;;;22.38;59.34
17821;BME280;9035;42.554;23.188;2022-09-09T07:33:26;90268.44;;;22.52;58.96
17821;BME280;9035;42.554;23.188;2022-09-09T07:36:02;90275.63;;;22.44;59.30
17821;BME280;9035;42.554;23.188;2022-09-09T07:38:30;90279.75;;;22.52;58.80
17821;BME280;9035;42.554;23.188;2022-09-09T07:41:03;90275.56;;;22.55;58.37
17821;BME280;9035;42.554;23.188;2022-09-09T07:43:30;90288.41;;;22.60;58.58
17821;BME280;9035;42.554;23.188;2022-09-09T07:45:57;90282.19;;;22.87;57.75
17821;BME280;9035;42.554;23.188;2022-09-09T07:48:26;90277.28;;;22.89;57.90
17821;BME280;9035;42.554;23.188;2022-09-09T07:50:52;90281.41;;;22.93;55.98
17821;BME280;9035;42.554;23.188;2022-09-09T07:53:19;90288.16;;;23.01;57.73
17821;BME280;9035;42.554;23.188;2022-09-09T07:55:46;90287.72;;;23.13;56.46
17821;BME280;9035;42.554;23.188;2022-09-09T07:58:13;90288.78;;;23.23;56.39
17821;BME280;9035;42.554;23.188;2022-09-09T08:00:39;90287.88;;;23.40;55.55
17821;BME280;9035;42.554;23.188;2022-09-09T08:03:08;90286.22;;;23.59;55.50
17821;BME280;9035;42.554;23.188;2022-09-09T08:05:36;90291.44;;;23.66;55.99
17821;BME280;9035;42.554;23.188;2022-09-09T08:08:04;90283.44;;;23.73;55.13
17821;BME280;9035;42.554;23.188;2022-09-09T08:10:31;90285.75;;;23.71;55.62
17821;BME280;9035;42.554;23.188;2022-09-09T08:12:58;90289.34;;;23.91;53.52
17821;BME280;9035;42.554;23.188;2022-09-09T08:15:25;90294.59;;;23.95;54.42
17821;BME280;9035;42.554;23.188;2022-09-09T08:17:51;90296.59;;;24.21;53.94
17821;BME280;9035;42.554;23.188;2022-09-09T08:20:18;90302.16;;;24.33;53.28
17821;BME280;9035;42.554;23.188;2022-09-09T08:22:46;90297.94;;;24.35;53.42
17821;BME280;9035;42.554;23.188;2022-09-09T08:25:15;90292.13;;;24.51;52.52
17821;BME280;9035;42.554;23.188;2022-09-09T08:27:41;90295.06;;;24.60;54.47
17821;BME280;9035;42.554;23.188;2022-09-09T08:30:10;90264.75;;;24.24;53.06
17821;BME280;9035;42.554;23.188;2022-09-09T08:32:36;90282.72;;;24.46;53.14
17821;BME280;9035;42.554;23.188;2022-09-09T08:35:04;90303.16;;;24.46;54.61
17821;BME280;9035;42.554;23.188;2022-09-09T08:37:30;90303.53;;;24.48;54.31
17821;BME280;9035;42.554;23.188;2022-09-09T08:39:58;90298.00;;;24.32;55.23
17821;BME280;9035;42.554;23.188;2022-09-09T08:42:34;90297.94;;;24.35;53.15
17821;BME280;9035;42.554;23.188;2022-09-09T08:45:15;90297.06;;;24.49;53.99
17821;BME280;9035;42.554;23.188;2022-09-09T08:47:54;90301.78;;;24.68;53.32
17821;BME280;9035;42.554;23.188;2022-09-09T08:50:26;90305.00;;;24.82;54.31
17821;BME280;9035;42.554;23.188;2022-09-09T08:52:59;90293.34;;;25.03;52.15
17821;BME280;9035;42.554;23.188;2022-09-09T08:55:36;90290.94;;;25.12;53.44
17821;BME280;9035;42.554;23.188;2022-09-09T08:58:11;90285.81;;;24.98;53.33
17821;BME280;9035;42.554;23.188;2022-09-09T09:00:50;90287.91;;;25.13;52.86
17821;BME280;9035;42.554;23.188;2022-09-09T09:03:23;90289.69;;;25.23;51.66
17821;BME280;9035;42.554;23.188;2022-09-09T09:05:59;90299.75;;;25.05;52.11
17821;BME280;9035;42.554;23.188;2022-09-09T09:08:32;90302.34;;;24.82;49.97
17821;BME280;9035;42.554;23.188;2022-09-09T09:11:05;90297.69;;;24.90;51.26
17821;BME280;9035;42.554;23.188;2022-09-09T09:13:35;90300.97;;;25.01;50.84
17821;BME280;9035;42.554;23.188;2022-09-09T09:16:13;90305.25;;;25.21;50.07
17821;BME280;9035;42.554;23.188;2022-09-09T09:18:44;90302.06;;;25.29;52.82
17821;BME280;9035;42.554;23.188;2022-09-09T09:21:13;90299.41;;;25.29;51.63
17821;BME280;9035;42.554;23.188;2022-09-09T09:23:49;90297.88;;;25.32;52.01
17821;BME280;9035;42.554;23.188;2022-09-09T09:26:22;90299.72;;;25.35;49.51
17821;BME280;9035;42.554;23.188;2022-09-09T09:28:52;90301.97;;;25.36;50.56
17821;BME280;9035;42.554;23.188;2022-09-09T09:31:22;90302.88;;;25.53;49.96
17821;BME280;9035;42.554;23.188;2022-09-09T09:33:53;90295.53;;;25.60;51.29
17821;BME280;9035;42.554;23.188;2022-09-09T09:36:20;90293.69;;;25.57;51.32
17821;BME280;9035;42.554;23.188;2022-09-09T09:38:55;90283.41;;;25.59;51.03
17821;BME280;9035;42.554;23.188;2022-09-09T09:41:31;90281.38;;;25.90;50.21
17821;BME280;9035;42.554;23.188;2022-09-09T09:43:58;90288.03;;;26.01;50.73
17821;BME280;9035;42.554;23.188;2022-09-09T09:46:26;90286.75;;;26.09;51.20
17821;BME280;9035;42.554;23.188;2022-09-09T09:48:57;90285.88;;;26.15;50.85
17821;BME280;9035;42.554;23.188;2022-09-09T09:51:25;90284.19;;;26.25;51.42
17821;BME280;9035;42.554;23.188;2022-09-09T09:53:53;90279.81;;;26.34;51.56
17821;BME280;9035;42.554;23.188;2022-09-09T09:56:27;90289.16;;;26.23;49.70
17821;BME280;9035;42.554;23.188;2022-09-09T09:58:56;90290.31;;;26.22;48.76
17821;BME280;9035;42.554;23.188;2022-09-09T10:01:25;90295.50;;;25.87;49.14
17821;BME280;9035;42.554;23.188;2022-09-09T10:03:54;90298.78;;;25.94;49.66
17821;BME280;9035;42.554;23.188;2022-09-09T10:06:30;90304.00;;;26.01;50.18
17821;BME280;9035;42.554;23.188;2022-09-09T10:08:58;90298.47;;;25.92;52.25
17821;BME280;9035;42.554;23.188;2022-09-09T10:11:44;90309.47;;;25.91;50.84
17821;BME280;9035;42.554;23.188;2022-09-09T10:14:20;90310.53;;;25.70;51.84
17821;BME280;9035;42.554;23.188;2022-09-09T10:16:58;90316.69;;;25.67;52.33
17821;BME280;9035;42.554;23.188;2022-09-09T10:19:31;90317.78;;;25.70;52.32
17821;BME280;9035;42.554;23.188;2022-09-09T10:22:11;90310.72;;;25.60;51.07
17821;BME280;9035;42.554;23.188;2022-09-09T10:25:32;90312.44;;;25.47;50.94
17821;BME280;9035;42.554;23.188;2022-09-09T10:28:28;90309.31;;;25.29;52.63
17821;BME280;9035;42.554;23.188;2022-09-09T10:31:11;90314.31;;;25.23;54.45
17821;BME280;9035;42.554;23.188;2022-09-09T10:33:47;90319.25;;;25.21;53.46
17821;BME280;9035;42.554;23.188;2022-09-09T10:36:19;90328.88;;;25.12;54.54
17821;BME280;9035;42.554;23.188;2022-09-09T10:38:48;90325.09;;;25.13;55.43
17821;BME280;9035;42.554;23.188;2022-09-09T10:41:20;90334.31;;;25.02;55.11
17821;BME280;9035;42.554;23.188;2022-09-09T10:44:06;90324.38;;;25.06;54.13
17821;BME280;9035;42.554;23.188;2022-09-09T10:47:11;90325.25;;;24.99;54.21
17821;BME280;9035;42.554;23.188;2022-09-09T10:50:04;90325.25;;;24.99;54.21
17821;BME280;9035;42.554;23.188;2022-09-09T10:52:40;90330.94;;;24.98;54.48
17821;BME280;9035;42.554;23.188;2022-09-09T10:55:14;90324.47;;;24.99;54.45
17821;BME280;9035;42.554;23.188;2022-09-09T10:57:45;90335.00;;;25.06;53.67
17821;BME280;9035;42.554;23.188;2022-09-09T11:00:16;90330.50;;;25.03;54.58
17821;BME280;9035;42.554;23.188;2022-09-09T11:02:48;90334.19;;;25.12;55.50
17821;BME280;9035;42.554;23.188;2022-09-09T11:05:20;90338.75;;;25.08;56.16
17821;BME280;9035;42.554;23.188;2022-09-09T11:07:49;90343.72;;;25.10;56.88
17821;BME280;9035;42.554;23.188;2022-09-09T11:10:24;90341.66;;;25.20;54.28
17821;BME280;9035;42.554;23.188;2022-09-09T11:12:57;90344.06;;;25.08;54.64
17821;BME280;9035;42.554;23.188;2022-09-09T11:15:31;90338.81;;;25.05;56.34
17821;BME280;9035;42.554;23.188;2022-09-09T11:18:04;90340.66;;;25.08;56.50
17821;BME280;9035;42.554;23.188;2022-09-09T11:20:33;90328.72;;;25.22;57.09
17821;BME280;9035;42.554;23.188;2022-09-09T11:23:03;90321.19;;;25.21;56.01
17821;BME280;9035;42.554;23.188;2022-09-09T11:25:35;90310.81;;;25.30;55.70
17821;BME280;9035;42.554;23.188;2022-09-09T11:28:24;90309.03;;;25.46;56.39
17821;BME280;9035;42.554;23.188;2022-09-09T11:31:07;90304.84;;;25.72;54.53
17821;BME280;9035;42.554;23.188;2022-09-09T11:34:03;90299.66;;;25.88;55.82
17821;BME280;9035;42.554;23.188;2022-09-09T11:36:54;90299.47;;;25.98;56.11
17821;BME280;9035;42.554;23.188;2022-09-09T11:39:38;90278.09;;;26.24;54.01
17821;BME280;9035;42.554;23.188;2022-09-09T11:42:16;90248.19;;;26.94;52.08
17821;BME280;9035;42.554;23.188;2022-09-09T11:44:44;90244.13;;;27.57;51.15
17821;BME280;9035;42.554;23.188;2022-09-09T11:47:19;90244.56;;;28.00;50.42
17821;BME280;9035;42.554;23.188;2022-09-09T11:49:48;90256.22;;;27.77;52.08
17821;BME280;9035;42.554;23.188;2022-09-09T11:52:21;90258.53;;;27.28;49.68
17821;BME280;9035;42.554;23.188;2022-09-09T11:54:51;90268.56;;;27.20;48.82
17821;BME280;9035;42.554;23.188;2022-09-09T11:57:25;90271.34;;;26.97;48.93
17821;BME280;9035;42.554;23.188;2022-09-09T11:59:53;90272.34;;;26.68;49.83
17821;BME280;9035;42.554;23.188;2022-09-09T12:02:23;90259.09;;;26.65;50.51
17821;BME280;9035;42.554;23.188;2022-09-09T12:04:58;90265.72;;;26.57;49.61
17821;BME280;9035;42.554;23.188;2022-09-09T12:07:38;90257.69;;;26.41;49.88
17821;BME280;9035;42.554;23.188;2022-09-09T12:10:20;90259.22;;;26.19;50.57
17821;BME280;9035;42.554;23.188;2022-09-09T12:12:48;90260.28;;;26.02;50.73
17821;BME280;9035;42.554;23.188;2022-09-09T12:15:25;90267.44;;;26.05;52.81
17821;BME280;9035;42.554;23.188;2022-09-09T12:17:55;90274.19;;;25.90;50.63
17821;BME280;9035;42.554;23.188;2022-09-09T12:20:31;90276.78;;;25.71;50.35
17821;BME280;9035;42.554;23.188;2022-09-09T12:23:17;90262.66;;;25.51;50.27
17821;BME280;9035;42.554;23.188;2022-09-09T12:25:57;90256.25;;;25.25;51.56
17821;BME280;9035;42.554;23.188;2022-09-09T12:28:30;90251.13;;;25.38;51.61
17821;BME280;9035;42.554;23.188;2022-09-09T12:31:07;90257.63;;;25.33;52.42
17821;BME280;9035;42.554;23.188;2022-09-09T12:33:38;90259.94;;;25.31;51.79
17821;BME280;9035;42.554;23.188;2022-09-09T12:36:13;90253.34;;;25.16;53.11
17821;BME280;9035;42.554;23.188;2022-09-09T12:38:41;90255.53;;;25.21;53.22
17821;BME280;9035;42.554;23.188;2022-09-09T12:41:18;90244.78;;;25.32;53.24
17821;BME280;9035;42.554;23.188;2022-09-09T12:43:46;90256.53;;;25.31;52.97
17821;BME280;9035;42.554;23.188;2022-09-09T12:46:23;90255.47;;;25.25;54.22
17821;BME280;9035;42.554;23.188;2022-09-09T12:48:54;90250.88;;;25.29;53.76
17821;BME280;9035;42.554;23.188;2022-09-09T12:51:26;90247.44;;;25.32;53.74
17821;BME280;9035;42.554;23.188;2022-09-09T12:53:55;90240.84;;;25.40;53.02
17821;BME280;9035;42.554;23.188;2022-09-09T12:56:24;90252.56;;;25.42;53.64
17821;BME280;9035;42.554;23.188;2022-09-09T12:58:55;90244.94;;;25.44;55.15
17821;BME280;9035;42.554;23.188;2022-09-09T13:01:24;90238.47;;;25.45;55.14
17821;BME280;9035;42.554;23.188;2022-09-09T13:03:51;90243.38;;;25.47;55.90
17821;BME280;9035;42.554;23.188;2022-09-09T13:06:21;90232.19;;;25.36;57.10
17821;BME280;9035;42.554;23.188;2022-09-09T13:08:51;90222.75;;;25.31;57.13
17821;BME280;9035;42.554;23.188;2022-09-09T13:11:21;90227.28;;;25.34;56.24
17821;BME280;9035;42.554;23.188;2022-09-09T13:13:53;90221.91;;;25.38;56.89
17821;BME280;9035;42.554;23.188;2022-09-09T13:16:24;90214.78;;;25.31;55.75
17821;BME280;9035;42.554;23.188;2022-09-09T13:18:52;90213.06;;;25.21;55.90
17821;BME280;9035;42.554;23.188;2022-09-09T13:21:31;90208.94;;;25.17;56.66
17821;BME280;9035;42.554;23.188;2022-09-09T13:24:01;90203.03;;;25.10;56.77
17821;BME280;9035;42.554;23.188;2022-09-09T13:26:30;90202.56;;;25.14;56.96
17821;BME280;9035;42.554;23.188;2022-09-09T13:29:08;90205.28;;;25.08;58.66